createdAt,value
2023-05-17T00:00:34.541Z,100789.20
2023-05-17T00:03:01.879Z,100788.80
2023-05-17T00:05:29.327Z,100792.77
2023-05-17T00:07:56.669Z,100795.23
2023-05-17T00:10:23.725Z,100799.66
2023-05-17T00:12:50.796Z,100800.48
2023-05-17T00:15:17.976Z,100799.30
2023-05-17T00:17:45.057Z,100799.55
2023-05-17T00:20:12.659Z,100801.29
2023-05-17T00:22:41.167Z,100798.48
2023-05-17T00:25:08.421Z,100802.33
2023-05-17T00:27:35.532Z,100803.99
2023-05-17T00:30:02.814Z,100801.16
2023-05-17T00:32:29.925Z,100797.27
2023-05-17T00:34:57.089Z,100796.81
2023-05-17T00:37:24.191Z,100795.17
2023-05-17T00:39:51.364Z,100795.14
2023-05-17T00:42:18.425Z,100797.73
2023-05-17T00:44:45.516Z,100799.40
2023-05-17T00:47:12.558Z,100797.05
2023-05-17T00:49:39.642Z,100804.63
2023-05-17T00:52:06.992Z,100797.29
2023-05-17T00:54:34.166Z,100799.01
2023-05-17T00:57:01.661Z,100801.62
2023-05-17T00:59:28.682Z,100802.63
2023-05-17T01:01:56.138Z,100800.97
2023-05-17T01:04:23.297Z,100799.05
2023-05-17T01:06:50.760Z,100800.66
2023-05-17T01:09:17.783Z,100798.13
2023-05-17T01:11:54.500Z,100798.86
2023-05-17T01:14:38.122Z,100797.44
2023-05-17T01:17:09.218Z,100800.02
2023-05-17T01:19:55.446Z,100797.45
2023-05-17T01:23:02.523Z,100799.82
2023-05-17T01:25:49.851Z,100797.27
2023-05-17T01:28:18.658Z,100795.03
2023-05-17T01:30:45.883Z,100793.04
2023-05-17T01:33:13.087Z,100791.92
2023-05-17T01:35:41.778Z,100791.91
2023-05-17T01:38:08.900Z,100790.42
2023-05-17T01:40:39.699Z,100789.92
2023-05-17T01:43:18.704Z,100794.77
2023-05-17T01:45:49.747Z,100796.52
2023-05-17T01:48:19.928Z,100794.71
2023-05-17T01:50:51.593Z,100795.67
2023-05-17T01:53:27.806Z,100795.25
2023-05-17T01:56:04.905Z,100800.33
2023-05-17T01:58:32.072Z,100801.05
2023-05-17T02:00:59.796Z,100801.86
2023-05-17T02:03:28.041Z,100806.23
2023-05-17T02:05:55.148Z,100809.23
2023-05-17T02:08:22.326Z,100816.48
2023-05-17T02:10:49.448Z,100819.04
2023-05-17T02:13:16.612Z,100817.13
2023-05-17T02:15:44.253Z,100822.52
2023-05-17T02:18:12.035Z,100820.29
2023-05-17T02:20:39.832Z,100819.91
2023-05-17T02:23:07.997Z,100822.22
2023-05-17T02:25:35.073Z,100824.33
2023-05-17T02:28:02.461Z,100825.09
2023-05-17T02:30:29.660Z,100824.03
2023-05-17T02:32:57.270Z,100824.43
2023-05-17T02:35:24.539Z,100824.16
2023-05-17T02:37:52.277Z,100825.17
2023-05-17T02:40:19.862Z,100830.11
2023-05-17T02:42:46.954Z,100832.60
2023-05-17T02:45:14.092Z,100835.76
2023-05-17T02:47:41.211Z,100839.10
2023-05-17T02:50:09.023Z,100844.70
2023-05-17T02:52:36.295Z,100848.08
2023-05-17T02:55:06.351Z,100850.21
2023-05-17T02:57:33.409Z,100856.33
2023-05-17T03:00:00.619Z,100861.52
2023-05-17T03:02:28.352Z,100862.80
2023-05-17T03:04:55.881Z,100866.33
2023-05-17T03:07:23.016Z,100868.33
2023-05-17T03:09:50.178Z,100869.17
2023-05-17T03:12:17.302Z,100869.62
2023-05-17T03:14:44.449Z,100874.14
2023-05-17T03:17:12.173Z,100879.25
2023-05-17T03:19:40.180Z,100878.13
2023-05-17T03:22:07.287Z,100881.42
2023-05-17T03:24:34.493Z,100883.42
2023-05-17T03:27:01.720Z,100886.63
2023-05-17T03:29:28.792Z,100890.16
2023-05-17T03:31:56.055Z,100894.95
2023-05-17T03:34:23.113Z,100897.66
2023-05-17T03:36:50.459Z,100899.70
2023-05-17T03:39:17.594Z,100903.73
2023-05-17T03:41:44.868Z,100906.91
2023-05-17T03:44:12.690Z,100906.09
2023-05-17T03:46:39.744Z,100906.85
2023-05-17T03:49:06.955Z,100916.11
2023-05-17T03:51:35.156Z,100917.34
2023-05-17T03:54:02.366Z,100919.68
2023-05-17T03:56:31.496Z,100918.05
2023-05-17T03:58:58.582Z,100920.15
2023-05-17T04:01:25.786Z,100920.39
2023-05-17T04:03:52.903Z,100918.18
2023-05-17T04:06:20.903Z,100920.07
2023-05-17T04:08:48.093Z,100924.48
2023-05-17T04:11:15.188Z,100923.05
2023-05-17T04:13:43.407Z,100927.45
2023-05-17T04:16:10.684Z,100924.85
2023-05-17T04:18:39.400Z,100918.96
2023-05-17T04:21:07.074Z,100921.11
2023-05-17T04:23:34.911Z,100921.95
2023-05-17T04:26:03.540Z,100924.11
2023-05-17T04:28:31.418Z,100927.86
2023-05-17T04:30:58.658Z,100931.06
2023-05-17T04:33:27.112Z,100928.41
2023-05-17T04:35:55.259Z,100933.66
2023-05-17T04:38:24.300Z,100935.69
2023-05-17T04:40:51.564Z,100935.34
2023-05-17T04:43:18.953Z,100936.72
2023-05-17T04:45:46.897Z,100940.27
2023-05-17T04:48:15.848Z,100937.27
2023-05-17T04:50:45.886Z,100942.30
2023-05-17T04:53:13.288Z,100944.43
2023-05-17T04:55:40.955Z,100947.39
2023-05-17T04:58:09.480Z,100947.58
2023-05-17T05:00:37.938Z,100946.67
2023-05-17T05:03:05.337Z,100944.19
2023-05-17T05:05:33.555Z,100945.29
2023-05-17T05:08:00.631Z,100947.80
2023-05-17T05:10:31.247Z,100946.23
2023-05-17T05:12:58.607Z,100947.98
2023-05-17T05:15:25.857Z,100941.73
2023-05-17T05:17:56.153Z,100943.15
2023-05-17T05:20:24.205Z,100945.60
2023-05-17T05:22:53.275Z,100950.25
2023-05-17T05:25:21.443Z,100950.65
2023-05-17T05:27:48.659Z,100946.81
2023-05-17T05:30:22.311Z,100946.08
2023-05-17T05:32:51.201Z,100949.52
2023-05-17T05:35:18.621Z,100952.84
2023-05-17T05:37:45.864Z,100954.24
2023-05-17T05:40:14.311Z,100957.02
2023-05-17T05:42:41.592Z,100953.67
2023-05-17T05:45:11.099Z,100956.14
2023-05-17T05:47:38.946Z,100954.06
2023-05-17T05:50:07.276Z,100953.23
2023-05-17T05:52:34.969Z,100949.68
2023-05-17T05:55:02.101Z,100947.52
2023-05-17T05:57:29.600Z,100951.52
2023-05-17T05:59:56.765Z,100947.68
2023-05-17T06:02:24.981Z,100949.27
2023-05-17T06:04:52.117Z,100947.03
2023-05-17T06:07:19.170Z,100951.55
2023-05-17T06:09:46.299Z,100953.91
2023-05-17T06:12:13.784Z,100956.20
2023-05-17T06:14:40.868Z,100956.86
2023-05-17T06:17:07.920Z,100954.83
2023-05-17T06:19:35.410Z,100957.27
2023-05-17T06:22:02.580Z,100954.59
2023-05-17T06:24:29.739Z,100950.95
2023-05-17T06:26:56.791Z,100956.06
2023-05-17T06:29:24.474Z,100955.12
2023-05-17T06:31:51.672Z,100956.34
2023-05-17T06:34:18.737Z,100957.92
2023-05-17T06:36:45.928Z,100958.30
2023-05-17T06:39:13.158Z,100959.84
2023-05-17T06:41:40.235Z,100958.73
2023-05-17T06:44:08.140Z,100958.80
2023-05-17T06:46:35.145Z,100955.67
2023-05-17T06:49:02.602Z,100958.98
2023-05-17T06:51:29.857Z,100957.71
2023-05-17T06:53:56.871Z,100955.04
2023-05-17T06:56:25.395Z,100953.98
2023-05-17T06:58:52.437Z,100954.19
2023-05-17T07:01:20.802Z,100953.27
2023-05-17T07:03:47.933Z,100951.17
2023-05-17T07:06:15.102Z,100950.43
2023-05-17T07:08:42.155Z,100949.65
2023-05-17T07:11:09.229Z,100949.36
2023-05-17T07:13:36.258Z,100951.67
2023-05-17T07:16:03.301Z,100950.07
2023-05-17T07:18:30.484Z,100948.15
2023-05-17T07:20:57.682Z,100950.16
2023-05-17T07:23:24.788Z,100941.50
2023-05-17T07:25:51.869Z,100941.48
2023-05-17T07:28:18.973Z,100948.44
2023-05-17T07:30:46.039Z,100949.11
2023-05-17T07:33:13.133Z,100949.11
2023-05-17T07:35:40.184Z,100951.08
2023-05-17T07:38:07.266Z,100944.52
2023-05-17T07:43:18.163Z,100946.74
2023-05-17T07:45:45.385Z,100947.20
2023-05-17T07:48:12.505Z,100944.46
2023-05-17T07:50:39.989Z,100942.83
2023-05-17T07:53:07.636Z,100942.02
2023-05-17T07:55:34.882Z,100945.04
2023-05-17T07:58:02.241Z,100939.84
2023-05-17T08:00:29.915Z,100937.72
2023-05-17T08:02:57.721Z,100938.11
2023-05-17T08:05:25.179Z,100931.05
2023-05-17T08:07:52.894Z,100931.20
2023-05-17T08:10:20.138Z,100926.60
2023-05-17T08:12:47.187Z,100924.90
2023-05-17T08:15:14.207Z,100925.05
2023-05-17T08:17:41.281Z,100930.17
2023-05-17T08:20:09.907Z,100920.16
2023-05-17T08:22:37.103Z,100921.80
2023-05-17T08:25:04.755Z,100922.34
2023-05-17T08:27:32.484Z,100917.69
2023-05-17T08:30:00.044Z,100922.17
2023-05-17T08:32:27.615Z,100926.34
2023-05-17T08:34:55.221Z,100926.81
2023-05-17T08:37:22.259Z,100926.14
2023-05-17T08:39:50.390Z,100925.83
2023-05-17T08:42:20.581Z,100922.19
2023-05-17T08:44:47.802Z,100921.84
2023-05-17T08:47:26.690Z,100918.42
2023-05-17T08:49:56.247Z,100919.15
2023-05-17T08:52:23.581Z,100921.91
2023-05-17T08:54:50.845Z,100912.95
2023-05-17T08:57:18.611Z,100910.67
2023-05-17T08:59:45.861Z,100907.27
2023-05-17T09:02:13.771Z,100912.81
2023-05-17T09:04:41.275Z,100910.91
2023-05-17T09:07:09.027Z,100912.08
2023-05-17T09:09:36.066Z,100913.18
2023-05-17T09:12:04.534Z,100910.48
2023-05-17T09:14:36.074Z,100902.50
2023-05-17T09:17:03.179Z,100898.48
2023-05-17T09:19:30.784Z,100899.28
2023-05-17T09:22:00.508Z,100900.73
2023-05-17T09:24:30.260Z,100894.20
2023-05-17T09:27:02.505Z,100896.13
2023-05-17T09:29:34.173Z,100901.31
2023-05-17T09:32:17.849Z,100895.66
2023-05-17T09:34:46.049Z,100900.80
2023-05-17T09:37:14.761Z,100907.63
2023-05-17T09:39:42.842Z,100904.56
2023-05-17T09:42:11.023Z,100904.08
2023-05-17T09:44:48.286Z,100902.14
2023-05-17T09:47:29.363Z,100898.55
2023-05-17T09:49:58.387Z,100899.03
2023-05-17T09:52:25.550Z,100899.48
2023-05-17T09:54:56.523Z,100896.05
2023-05-17T09:57:23.761Z,100890.74
2023-05-17T09:59:51.056Z,100893.85
2023-05-17T10:02:23.443Z,100890.02
2023-05-17T10:04:51.477Z,100885.73
2023-05-17T10:07:20.025Z,100887.85
2023-05-17T10:09:50.363Z,100884.56
2023-05-17T10:12:18.904Z,100884.23
2023-05-17T10:14:46.145Z,100876.57
2023-05-17T10:17:14.485Z,100867.90
2023-05-17T10:19:42.253Z,100864.02
2023-05-17T10:22:21.616Z,100862.02
2023-05-17T10:24:51.634Z,100861.83
2023-05-17T10:27:19.132Z,100865.98
2023-05-17T10:29:49.284Z,100868.10
2023-05-17T10:32:17.890Z,100864.16
2023-05-17T10:34:47.517Z,100862.72
2023-05-17T10:37:19.212Z,100862.88
2023-05-17T10:39:47.253Z,100863.46
2023-05-17T10:42:15.446Z,100851.82
2023-05-17T10:44:43.098Z,100845.02
2023-05-17T10:47:10.652Z,100849.92
2023-05-17T10:49:39.209Z,100845.56
2023-05-17T10:52:16.379Z,100846.55
2023-05-17T10:54:44.456Z,100843.63
2023-05-17T10:57:22.564Z,100843.62
2023-05-17T11:00:00.042Z,100839.52
2023-05-17T11:02:28.116Z,100836.32
2023-05-17T11:04:56.895Z,100840.84
2023-05-17T11:07:32.573Z,100832.08
2023-05-17T11:10:00.207Z,100828.27
2023-05-17T11:12:39.251Z,100831.20
2023-05-17T11:15:12.309Z,100824.77
2023-05-17T11:17:54.782Z,100820.45
2023-05-17T11:20:25.204Z,100822.66
2023-05-17T11:22:59.119Z,100822.64
2023-05-17T11:25:31.222Z,100818.37
2023-05-17T11:27:58.432Z,100818.45
2023-05-17T11:30:30.045Z,100814.91
2023-05-17T11:33:07.210Z,100810.75
2023-05-17T11:35:41.082Z,100809.39
2023-05-17T11:38:24.888Z,100808.09
2023-05-17T11:40:55.685Z,100805.42
2023-05-17T11:43:24.107Z,100806.16
2023-05-17T11:45:53.500Z,100804.73
2023-05-17T11:48:24.306Z,100797.07
2023-05-17T11:50:53.270Z,100793.30
2023-05-17T11:53:20.435Z,100794.33
2023-05-17T11:55:49.078Z,100795.23
2023-05-17T11:58:17.763Z,100795.37
2023-05-17T12:00:45.590Z,100793.11
2023-05-17T12:03:20.090Z,100784.88
2023-05-17T12:05:48.621Z,100787.34
2023-05-17T12:08:17.564Z,100780.73
2023-05-17T12:10:46.696Z,100777.82
2023-05-17T12:13:13.813Z,100777.14
2023-05-17T12:15:41.217Z,100769.29
2023-05-17T12:18:08.423Z,100770.00
2023-05-17T12:20:36.131Z,100764.57
2023-05-17T12:23:03.165Z,100767.00
2023-05-17T12:25:30.310Z,100764.50
2023-05-17T12:28:22.907Z,100758.22
2023-05-17T12:30:54.114Z,100754.61
2023-05-17T12:33:21.359Z,100752.77
2023-05-17T12:35:48.558Z,100755.26
2023-05-17T12:38:15.734Z,100754.02
2023-05-17T12:40:43.445Z,100753.11
2023-05-17T12:43:10.824Z,100750.53
2023-05-17T12:45:37.922Z,100745.25
2023-05-17T12:48:05.325Z,100751.88
2023-05-17T12:50:32.864Z,100744.80
2023-05-17T12:52:59.920Z,100742.64
2023-05-17T12:55:27.321Z,100741.20
2023-05-17T12:57:55.039Z,100745.29
2023-05-17T13:00:22.288Z,100740.52
2023-05-17T13:02:49.533Z,100734.02
2023-05-17T13:05:18.660Z,100729.69
2023-05-17T13:07:46.478Z,100740.30
2023-05-17T13:10:27.319Z,100737.69
2023-05-17T13:12:56.778Z,100729.69
2023-05-17T13:15:29.290Z,100731.76
2023-05-17T13:17:56.359Z,100727.73
2023-05-17T13:20:23.606Z,100729.98
2023-05-17T13:22:51.211Z,100729.55
2023-05-17T13:25:18.633Z,100730.82
2023-05-17T13:27:48.917Z,100727.80
2023-05-17T13:30:16.813Z,100728.52
2023-05-17T13:32:44.654Z,100735.27
2023-05-17T13:35:12.006Z,100728.44
2023-05-17T13:37:39.170Z,100724.48
2023-05-17T13:40:07.282Z,100728.14
2023-05-17T13:42:34.410Z,100727.73
2023-05-17T13:45:04.296Z,100728.02
2023-05-17T13:47:32.508Z,100727.72
2023-05-17T13:50:00.697Z,100722.45
2023-05-17T13:52:27.987Z,100723.05
2023-05-17T13:54:55.193Z,100727.42
2023-05-17T13:57:22.204Z,100726.14
2023-05-17T13:59:49.382Z,100727.27
2023-05-17T14:02:16.428Z,100726.96
2023-05-17T14:04:43.617Z,100726.83
2023-05-17T14:07:10.753Z,100725.98
2023-05-17T14:09:37.827Z,100723.39
2023-05-17T14:12:05.180Z,100720.07
2023-05-17T14:14:32.351Z,100717.31
2023-05-17T14:16:59.488Z,100712.83
2023-05-17T14:19:26.637Z,100716.95
2023-05-17T14:21:53.876Z,100713.05
2023-05-17T14:24:20.973Z,100708.62
2023-05-17T14:26:48.042Z,100710.31
2023-05-17T14:29:15.142Z,100707.90
2023-05-17T14:31:42.635Z,100709.47
2023-05-17T14:34:09.699Z,100710.52
2023-05-17T14:36:38.781Z,100711.55
2023-05-17T14:39:05.957Z,100713.11
2023-05-17T14:41:33.026Z,100703.60
2023-05-17T14:44:00.170Z,100701.52
2023-05-17T14:46:27.213Z,100697.15
2023-05-17T14:48:56.743Z,100694.65
2023-05-17T14:51:25.309Z,100697.93
2023-05-17T14:53:52.948Z,100698.20
2023-05-17T14:56:19.969Z,100697.16
2023-05-17T14:58:47.623Z,100692.09
2023-05-17T15:01:15.455Z,100691.48
2023-05-17T15:03:42.600Z,100691.73
2023-05-17T15:06:11.872Z,100692.76
2023-05-17T15:08:39.628Z,100689.45
2023-05-17T15:11:06.773Z,100687.11
2023-05-17T15:13:33.791Z,100684.31
2023-05-17T15:16:02.991Z,100686.00
2023-05-17T15:18:30.050Z,100683.48
2023-05-17T15:20:57.098Z,100680.65
2023-05-17T15:23:24.163Z,100676.89
2023-05-17T15:25:51.374Z,100678.64
2023-05-17T15:28:21.153Z,100678.16
2023-05-17T15:30:48.291Z,100683.14
2023-05-17T15:33:15.739Z,100679.89
2023-05-17T15:35:43.446Z,100682.36
2023-05-17T15:38:10.589Z,100678.14
2023-05-17T15:40:37.886Z,100683.86
2023-05-17T15:43:04.970Z,100677.63
2023-05-17T15:45:32.624Z,100679.70
2023-05-17T15:48:02.209Z,100683.02
2023-05-17T15:50:29.556Z,100684.34
2023-05-17T15:52:56.656Z,100689.33
2023-05-17T15:55:23.739Z,100685.83
2023-05-17T15:57:50.828Z,100685.25
2023-05-17T16:00:18.136Z,100685.27
2023-05-17T16:02:45.273Z,100691.83
2023-05-17T16:05:12.570Z,100689.54
2023-05-17T16:07:39.628Z,100691.67
2023-05-17T16:10:07.797Z,100696.98
2023-05-17T16:12:34.917Z,100702.12
2023-05-17T16:15:01.950Z,100699.71
2023-05-17T16:17:29.079Z,100697.95
2023-05-17T16:19:56.447Z,100696.13
2023-05-17T16:22:24.107Z,100694.11
2023-05-17T16:24:54.375Z,100697.83
2023-05-17T16:27:22.039Z,100698.10
2023-05-17T16:29:49.142Z,100703.88
2023-05-17T16:32:16.357Z,100703.36
2023-05-17T16:34:43.530Z,100704.02
2023-05-17T16:37:11.311Z,100708.38
2023-05-17T16:39:38.381Z,100704.88
2023-05-17T16:42:05.935Z,100710.10
2023-05-17T16:44:33.144Z,100710.48
2023-05-17T16:47:00.906Z,100711.67
2023-05-17T16:49:29.198Z,100716.47
2023-05-17T16:51:56.340Z,100715.67
2023-05-17T16:54:23.573Z,100712.77
2023-05-17T16:56:50.725Z,100713.98
2023-05-17T16:59:17.796Z,100718.85
2023-05-17T17:01:44.944Z,100716.04
2023-05-17T17:04:12.233Z,100718.30
2023-05-17T17:06:39.368Z,100716.98
2023-05-17T17:09:08.407Z,100715.02
2023-05-17T17:11:36.037Z,100718.83
2023-05-17T17:14:03.121Z,100723.27
2023-05-17T17:16:31.513Z,100727.29
2023-05-17T17:18:58.946Z,100726.29
2023-05-17T17:21:26.125Z,100726.99
2023-05-17T17:23:53.823Z,100734.17
2023-05-17T17:26:22.325Z,100734.35
2023-05-17T17:28:49.368Z,100730.61
2023-05-17T17:31:18.420Z,100732.52
2023-05-17T17:33:45.494Z,100732.83
2023-05-17T17:36:12.805Z,100735.57
2023-05-17T17:38:39.857Z,100736.56
2023-05-17T17:41:06.941Z,100738.52
2023-05-17T17:43:34.000Z,100737.79
2023-05-17T17:46:01.084Z,100735.89
2023-05-17T17:48:28.189Z,100736.30
2023-05-17T17:50:55.881Z,100739.52
2023-05-17T17:53:23.536Z,100737.45
2023-05-17T17:55:50.938Z,100739.73
2023-05-17T17:58:18.023Z,100741.44
2023-05-17T18:00:45.085Z,100743.77
2023-05-17T18:03:13.225Z,100744.73
2023-05-17T18:05:40.400Z,100746.45
2023-05-17T18:08:07.511Z,100749.23
2023-05-17T18:10:35.122Z,100748.70
2023-05-17T18:13:02.239Z,100749.55
2023-05-17T18:15:29.346Z,100746.70
2023-05-17T18:17:57.483Z,100749.73
2023-05-17T18:20:26.586Z,100753.51
2023-05-17T18:22:54.279Z,100757.54
2023-05-17T18:25:21.727Z,100754.94
2023-05-17T18:27:48.848Z,100755.92
2023-05-17T18:30:15.864Z,100758.39
2023-05-17T18:32:43.009Z,100756.29
2023-05-17T18:35:10.472Z,100753.50
2023-05-17T18:37:37.657Z,100752.89
2023-05-17T18:40:05.494Z,100754.94
2023-05-17T18:42:32.623Z,100750.66
2023-05-17T18:45:01.294Z,100753.25
2023-05-17T18:47:28.649Z,100751.64
2023-05-17T18:49:56.173Z,100748.38
2023-05-17T18:52:23.425Z,100746.23
2023-05-17T18:54:50.621Z,100750.80
2023-05-17T18:57:17.833Z,100749.88
2023-05-17T18:59:45.175Z,100750.08
2023-05-17T19:02:12.400Z,100747.86
2023-05-17T19:04:40.703Z,100745.77
2023-05-17T19:07:07.818Z,100748.04
2023-05-17T19:09:34.887Z,100749.38
2023-05-17T19:12:02.015Z,100742.79
2023-05-17T19:14:29.122Z,100742.11
2023-05-17T19:16:57.217Z,100744.14
2023-05-17T19:19:25.000Z,100746.63
2023-05-17T19:21:52.460Z,100747.05
2023-05-17T19:24:19.729Z,100746.20
2023-05-17T19:26:47.208Z,100744.23
2023-05-17T19:29:14.342Z,100738.77
2023-05-17T19:31:44.409Z,100735.83
2023-05-17T19:34:11.489Z,100735.16
2023-05-17T19:36:38.742Z,100733.97
2023-05-17T19:39:05.920Z,100737.20
2023-05-17T19:41:33.006Z,100738.42
2023-05-17T19:44:00.115Z,100736.73
2023-05-17T19:46:27.317Z,100738.75
2023-05-17T19:48:55.906Z,100739.58
2023-05-17T19:51:23.584Z,100746.34
2023-05-17T19:53:53.854Z,100743.30
2023-05-17T19:56:23.576Z,100743.30
2023-05-17T20:01:14.211Z,100743.48
2023-05-17T20:03:41.853Z,100742.91
2023-05-17T20:06:14.473Z,100744.80
2023-05-17T20:08:42.039Z,100747.92
2023-05-17T20:11:08.968Z,100744.40
2023-05-17T20:13:39.604Z,100745.85
2023-05-17T20:16:12.028Z,100742.24
2023-05-17T20:18:42.918Z,100747.64
2023-05-17T20:21:12.062Z,100739.70
2023-05-17T20:23:39.408Z,100741.52
2023-05-17T20:26:06.625Z,100740.96
2023-05-17T20:28:33.542Z,100738.92
2023-05-17T20:31:00.449Z,100741.17
2023-05-17T20:33:27.382Z,100745.06
2023-05-17T20:35:54.306Z,100749.83
2023-05-17T20:38:21.957Z,100748.16
2023-05-17T20:40:48.829Z,100749.25
2023-05-17T20:43:16.374Z,100748.81
2023-05-17T20:45:45.494Z,100748.85
2023-05-17T20:48:12.554Z,100745.45
2023-05-17T20:50:39.393Z,100746.29
2023-05-17T20:53:06.381Z,100745.24
2023-05-17T20:55:33.269Z,100744.05
2023-05-17T20:58:00.832Z,100746.34
2023-05-17T21:00:28.033Z,100747.21
2023-05-17T21:02:55.629Z,100747.48
2023-05-17T21:05:22.779Z,100750.33
2023-05-17T21:07:50.091Z,100750.48
2023-05-17T21:10:17.399Z,100749.95
2023-05-17T21:12:44.448Z,100747.95
2023-05-17T21:15:17.156Z,100745.30
2023-05-17T21:17:44.661Z,100745.30
2023-05-17T21:20:11.853Z,100744.20
2023-05-17T21:22:38.759Z,100743.38
2023-05-17T21:25:06.559Z,100743.71
2023-05-17T21:27:33.953Z,100744.86
2023-05-17T21:30:01.235Z,100743.55
2023-05-17T21:32:28.357Z,100747.13
2023-05-17T21:34:55.472Z,100745.20
2023-05-17T21:37:22.407Z,100742.05
2023-05-17T21:39:49.238Z,100744.89
2023-05-17T21:42:16.290Z,100744.55
2023-05-17T21:44:43.175Z,100736.17
2023-05-17T21:47:10.178Z,100733.26
2023-05-17T21:49:37.129Z,100735.56
2023-05-17T21:52:04.377Z,100734.84
2023-05-17T21:54:31.275Z,100733.94
2023-05-17T21:56:58.178Z,100733.64
2023-05-17T21:59:25.439Z,100734.72
2023-05-17T22:01:54.432Z,100731.65
2023-05-17T22:04:21.392Z,100731.65
2023-05-17T22:06:48.257Z,100731.40
2023-05-17T22:09:15.224Z,100730.16
2023-05-17T22:11:42.141Z,100726.05
2023-05-17T22:14:09.037Z,100726.06
2023-05-17T22:16:36.189Z,100725.28
2023-05-17T22:19:04.557Z,100719.05
2023-05-17T22:21:32.561Z,100722.41
2023-05-17T22:23:59.408Z,100720.29
2023-05-17T22:26:27.274Z,100720.43
2023-05-17T22:28:55.294Z,100722.73
2023-05-17T22:31:22.299Z,100719.45
2023-05-17T22:33:51.597Z,100720.15
2023-05-17T22:36:19.087Z,100723.30
2023-05-17T22:38:46.121Z,100729.80
2023-05-17T22:41:13.047Z,100726.82
2023-05-17T22:43:39.937Z,100728.02
2023-05-17T22:46:06.968Z,100735.16
2023-05-17T22:48:36.733Z,100732.43
2023-05-17T22:51:04.038Z,100733.27
2023-05-17T22:53:31.303Z,100737.13
2023-05-17T22:55:58.205Z,100733.25
2023-05-17T22:58:25.263Z,100735.48
2023-05-17T23:00:52.398Z,100734.95
2023-05-17T23:03:19.352Z,100737.17
2023-05-17T23:05:47.019Z,100739.58
2023-05-17T23:08:17.229Z,100738.48
2023-05-17T23:10:44.257Z,100743.84
2023-05-17T23:13:12.063Z,100740.46
2023-05-17T23:15:40.243Z,100740.20
2023-05-17T23:18:07.552Z,100741.98
2023-05-17T23:20:35.574Z,100739.92
2023-05-17T23:23:02.501Z,100742.23
2023-05-17T23:25:31.169Z,100744.15
2023-05-17T23:27:58.335Z,100741.08
2023-05-17T23:30:25.801Z,100741.95
2023-05-17T23:32:54.717Z,100742.51
2023-05-17T23:35:24.557Z,100741.05
2023-05-17T23:37:52.217Z,100742.38
2023-05-17T23:40:19.422Z,100743.10
2023-05-17T23:42:46.531Z,100744.42
2023-05-17T23:45:13.400Z,100740.27
2023-05-17T23:47:40.976Z,100745.96
2023-05-17T23:50:09.843Z,100743.89
2023-05-17T23:52:38.595Z,100747.99
2023-05-17T23:55:08.701Z,100745.31
2023-05-17T23:57:36.196Z,100739.53
